Time;durP1;ratioP1;P1;durP2;ratioP2;P2;SDS_P1;SDS_P2;PMS_P1;PMS_P2;Temp;Humidity;BMP_temperature;BMP_pressure;BME280_temperature;BME280_humidity;BME280_pressure;Samples;Min_cycle;Max_cycle;Signal;HPM_P1;HPM_P2
2022/04/05 00:00:20;;;;;;;12.40;11.20;;;;;;;;;;4998603;28;20428;-85
2022/04/05 00:02:46;;;;;;;12.30;11.20;;;;;;;;;;5020416;28;20242;-85
2022/04/05 00:05:15;;;;;;;9.82;9.02;;;;;;;;;;5008991;28;20238;-86
2022/04/05 00:07:41;;;;;;;7.80;7.07;;;;;;;;;;4996465;28;20216;-85
2022/04/05 00:10:07;;;;;;;11.32;10.40;;;;;;;;;;5003342;28;20256;-84
2022/04/05 00:12:33;;;;;;;10.30;9.40;;;;;;;;;;5009758;28;20222;-87
2022/04/05 00:14:59;;;;;;;10.10;9.10;;;;;;;;;;5009502;28;20574;-85
2022/04/05 00:17:25;;;;;;;10.43;9.52;;;;;;;;;;5018501;28;20475;-87
2022/04/05 00:19:51;;;;;;;12.47;11.30;;;;;;;;;;5009805;28;20279;-86
2022/04/05 00:22:17;;;;;;;10.57;9.57;;;;;;;;;;5010728;28;20590;-86
2022/04/05 00:24:44;;;;;;;9.13;8.23;;;;;;;;;;5011551;28;20569;-87
2022/04/05 00:27:10;;;;;;;11.23;10.23;;;;;;;;;;5008872;28;20195;-86
2022/04/05 00:29:36;;;;;;;9.77;8.77;;;;;;;;;;5001785;28;20436;-86
2022/04/05 00:32:02;;;;;;;10.30;9.40;;;;;;;;;;5013102;28;20494;-86
2022/04/05 00:34:29;;;;;;;11.85;10.85;;;;;;;;;;5023591;28;20434;-86
2022/04/05 00:36:56;;;;;;;12.60;11.60;;;;;;;;;;5014954;28;20208;-86
2022/04/05 00:39:22;;;;;;;9.30;8.48;;;;;;;;;;5016355;28;20267;-86
2022/04/05 00:41:49;;;;;;;11.73;10.82;;;;;;;;;;5010264;28;20192;-86
2022/04/05 00:44:15;;;;;;;8.43;7.70;;;;;;;;;;5013554;28;20188;-85
2022/04/05 00:46:41;;;;;;;11.18;10.13;;;;;;;;;;5009685;28;20243;-87
2022/04/05 00:49:08;;;;;;;11.60;10.60;;;;;;;;;;5010332;28;20196;-86
2022/04/05 00:51:34;;;;;;;10.65;9.65;;;;;;;;;;5000997;28;20207;-85
2022/04/05 00:54:11;;;;;;;9.87;8.93;;;;;;;;;;5019719;28;20180;-86
2022/04/05 00:56:37;;;;;;;8.50;7.70;;;;;;;;;;4996903;28;20435;-86
2022/04/05 00:59:06;;;;;;;9.70;8.80;;;;;;;;;;5012969;28;20423;-86
2022/04/05 01:01:32;;;;;;;7.80;6.97;;;;;;;;;;5009697;28;20456;-86
2022/04/05 01:03:59;;;;;;;10.30;9.40;;;;;;;;;;5026938;28;20194;-85
2022/04/05 01:06:30;;;;;;;10.48;8.13;;;;;;;;;;4997283;28;20507;-86
2022/04/05 01:08:57;;;;;;;7.15;6.43;;;;;;;;;;5024361;28;20192;-86
2022/04/05 01:11:23;;;;;;;10.00;9.18;;;;;;;;;;5015653;28;20220;-85
2022/04/05 01:13:50;;;;;;;10.93;9.93;;;;;;;;;;5017476;28;20183;-85
2022/04/05 01:16:19;;;;;;;11.77;9.63;;;;;;;;;;5003307;28;20470;-87
2022/04/05 01:18:45;;;;;;;11.30;9.50;;;;;;;;;;5018791;28;20835;-86
2022/04/05 01:21:11;;;;;;;10.48;9.43;;;;;;;;;;5010472;28;20427;-85
2022/04/05 01:23:37;;;;;;;10.75;9.85;;;;;;;;;;5020128;28;20216;-86
2022/04/05 01:26:03;;;;;;;13.27;10.25;;;;;;;;;;4995936;28;20708;-86
2022/04/05 01:28:30;;;;;;;6.90;6.40;;;;;;;;;;5024113;28;20207;-86
2022/04/05 01:30:59;;;;;;;10.50;9.50;;;;;;;;;;5023214;28;20295;-87
2022/04/05 01:33:25;;;;;;;12.63;11.30;;;;;;;;;;5007966;28;20686;-87
2022/04/05 01:35:51;;;;;;;12.80;11.23;;;;;;;;;;5008788;28;20944;-88
2022/04/05 01:38:20;;;;;;;12.47;10.20;;;;;;;;;;5007119;28;20263;-87
2022/04/05 01:40:47;;;;;;;13.17;11.87;;;;;;;;;;4994183;28;20436;-87
2022/04/05 01:43:13;;;;;;;10.30;9.30;;;;;;;;;;5008565;28;20454;-86
2022/04/05 01:45:42;;;;;;;10.10;8.37;;;;;;;;;;4994402;28;20436;-87
2022/04/05 01:48:08;;;;;;;11.03;9.97;;;;;;;;;;4999681;28;20457;-86
2022/04/05 01:50:34;;;;;;;10.27;9.37;;;;;;;;;;4996595;28;20420;-86
2022/04/05 01:53:01;;;;;;;8.52;7.72;;;;;;;;;;4995192;28;20448;-86
2022/04/05 01:55:27;;;;;;;8.10;7.30;;;;;;;;;;5016909;28;20181;-88
2022/04/05 01:57:53;;;;;;;10.32;9.32;;;;;;;;;;5008941;28;20529;-87
2022/04/05 02:00:19;;;;;;;11.70;10.50;;;;;;;;;;5010086;28;20196;-87
2022/04/05 02:02:45;;;;;;;9.80;8.93;;;;;;;;;;4999552;28;20484;-85
2022/04/05 02:05:11;;;;;;;11.10;9.53;;;;;;;;;;5023177;28;20422;-86
2022/04/05 02:07:37;;;;;;;11.53;10.50;;;;;;;;;;5015660;28;20454;-86
2022/04/05 02:10:04;;;;;;;15.65;12.38;;;;;;;;;;5008727;28;20494;-87
2022/04/05 02:12:30;;;;;;;15.65;12.15;;;;;;;;;;5019437;28;20214;-87
2022/04/05 02:14:56;;;;;;;16.70;12.50;;;;;;;;;;4993292;28;20976;-86
2022/04/05 02:17:22;;;;;;;20.27;14.75;;;;;;;;;;4995215;28;20550;-87
2022/04/05 02:19:49;;;;;;;20.90;13.17;;;;;;;;;;5015658;28;20214;-86
2022/04/05 02:22:16;;;;;;;16.60;12.95;;;;;;;;;;5008055;28;20436;-86
2022/04/05 02:24:42;;;;;;;21.40;16.23;;;;;;;;;;5000744;28;20256;-87
2022/04/05 02:27:08;;;;;;;22.10;16.10;;;;;;;;;;5011621;28;20690;-86
2022/04/05 02:29:35;;;;;;;22.57;15.30;;;;;;;;;;5002873;28;20913;-87
2022/04/05 02:32:01;;;;;;;26.27;18.77;;;;;;;;;;5002393;28;20428;-87
2022/04/05 02:34:27;;;;;;;25.80;18.93;;;;;;;;;;4998075;28;20936;-86
2022/04/05 02:36:53;;;;;;;29.30;21.03;;;;;;;;;;5022225;28;20434;-85
2022/04/05 02:39:37;;;;;;;37.53;22.63;;;;;;;;;;5026019;28;20460;-86
2022/04/05 02:42:03;;;;;;;38.23;24.77;;;;;;;;;;5037241;28;20465;-87
2022/04/05 02:44:29;;;;;;;42.00;24.77;;;;;;;;;;5022187;28;20423;-87
2022/04/05 02:46:58;;;;;;;34.47;24.70;;;;;;;;;;5018705;28;20466;-87
2022/04/05 02:49:25;;;;;;;25.73;18.73;;;;;;;;;;5037563;28;20203;-86
2022/04/05 02:51:51;;;;;;;23.70;16.27;;;;;;;;;;5017099;28;20435;-86
2022/04/05 02:54:17;;;;;;;15.73;12.23;;;;;;;;;;5010340;28;20805;-86
2022/04/05 02:56:43;;;;;;;9.60;8.43;;;;;;;;;;5035530;28;20435;-87
2022/04/05 02:59:09;;;;;;;8.10;7.13;;;;;;;;;;5014946;28;20228;-87
2022/04/05 03:01:35;;;;;;;6.27;5.87;;;;;;;;;;5021171;28;20447;-87
2022/04/05 03:04:01;;;;;;;5.40;5.00;;;;;;;;;;5014416;28;20441;-87
2022/04/05 03:06:27;;;;;;;4.43;4.23;;;;;;;;;;5027850;28;20470;-88
2022/04/05 03:09:02;;;;;;;5.23;4.83;;;;;;;;;;5011378;28;20441;-87
2022/04/05 03:11:28;;;;;;;4.90;4.57;;;;;;;;;;5018359;28;20514;-87
2022/04/05 03:13:54;;;;;;;5.03;4.53;;;;;;;;;;5013566;28;21301;-86
2022/04/05 03:16:20;;;;;;;5.45;5.05;;;;;;;;;;5014600;28;20433;-88
2022/04/05 03:18:47;;;;;;;3.90;3.80;;;;;;;;;;5008917;28;20216;-87
2022/04/05 03:21:14;;;;;;;4.33;4.13;;;;;;;;;;5029516;28;20434;-86
2022/04/05 03:23:40;;;;;;;4.10;3.90;;;;;;;;;;5009264;28;20537;-87
2022/04/05 03:26:06;;;;;;;3.47;3.37;;;;;;;;;;5010365;28;20208;-85
2022/04/05 03:28:32;;;;;;;3.63;3.50;;;;;;;;;;5007707;28;20868;-87
2022/04/05 03:31:00;;;;;;;3.80;3.63;;;;;;;;;;5011066;28;20900;-87
2022/04/05 03:33:26;;;;;;;3.83;3.63;;;;;;;;;;4999216;28;20917;-87
2022/04/05 03:35:54;;;;;;;3.40;3.17;;;;;;;;;;5010536;28;20730;-88
2022/04/05 03:38:20;;;;;;;4.97;4.67;;;;;;;;;;5012226;28;20471;-87
2022/04/05 03:40:53;;;;;;;4.10;3.90;;;;;;;;;;5010922;28;20419;-87
2022/04/05 03:43:19;;;;;;;4.50;4.20;;;;;;;;;;4999230;28;20501;-87
2022/04/05 03:45:45;;;;;;;4.63;4.37;;;;;;;;;;5008316;28;20467;-87
2022/04/05 03:48:11;;;;;;;5.15;4.50;;;;;;;;;;5008708;28;20436;-87
2022/04/05 03:50:37;;;;;;;4.10;3.90;;;;;;;;;;5009816;28;20254;-88
2022/04/05 03:53:03;;;;;;;4.13;3.83;;;;;;;;;;5007511;28;20819;-85
2022/04/05 03:55:30;;;;;;;4.10;3.90;;;;;;;;;;5005504;28;20420;-85
2022/04/05 03:58:08;;;;;;;5.05;4.60;;;;;;;;;;5016588;28;20220;-86
2022/04/05 04:00:34;;;;;;;3.93;3.77;;;8.80;99.90;;;;;;5019999;28;20179;-84
2022/04/05 04:02:59;;;;;;;4.63;4.43;;;9.10;99.90;;;;;;5019362;28;20481;-86
2022/04/05 04:05:25;;;;;;;6.53;6.03;;;9.10;99.90;;;;;;5017622;28;20420;-86
2022/04/05 04:08:00;;;;;;;5.80;5.40;;;8.90;99.90;;;;;;5013104;28;20193;-87
2022/04/05 04:10:38;;;;;;;5.07;4.67;;;9.70;99.90;;;;;;4981678;28;20300;-87
2022/04/05 04:13:03;;;;;;;6.13;5.63;;;9.20;99.90;;;;;;5008487;28;20526;-87
2022/04/05 04:15:29;;;;;;;5.83;5.43;;;;;;;;;;5019923;28;20948;-87
2022/04/05 04:17:57;;;;;;;7.87;6.23;;;8.90;99.90;;;;;;5024923;28;20226;-87
2022/04/05 04:20:23;;;;;;;5.20;4.80;;;9.20;99.90;;;;;;5001230;28;21017;-86
2022/04/05 04:22:50;;;;;;;6.07;5.57;;;8.80;99.90;;;;;;4991856;28;20519;-85
2022/04/05 04:25:15;;;;;;;7.00;6.53;;;8.70;99.90;;;;;;5021538;28;20199;-86
2022/04/05 04:27:41;;;;;;;7.20;6.37;;;8.90;99.90;;;;;;5002762;28;20193;-86
2022/04/05 04:30:10;;;;;;;7.27;6.50;;;8.80;99.90;;;;;;5027005;28;20254;-86
2022/04/05 04:32:36;;;;;;;5.72;5.22;;;9.10;99.90;;;;;;4996569;28;20201;-86
2022/04/05 04:35:02;;;;;;;7.20;6.50;;;8.80;99.90;;;;;;5021031;28;20553;-85
2022/04/05 04:37:31;;;;;;;8.03;7.30;;;;;;;;;;4989815;28;20300;-85
2022/04/05 04:39:56;;;;;;;9.85;8.07;;;8.80;99.90;;;;;;5007579;28;20176;-84
2022/04/05 04:42:22;;;;;;;11.17;8.00;;;;;;;;;;5006845;28;20195;-86
2022/04/05 04:44:48;;;;;;;8.85;7.90;;;8.80;99.90;;;;;;5024128;28;20218;-86
2022/04/05 04:47:18;;;;;;;16.17;9.93;;;;;;;;;;5035292;23;20232;-93
2022/04/05 04:49:44;;;;;;;20.70;11.07;;;8.80;99.90;;;;;;5063290;28;20449;-91
2022/04/05 04:52:16;;;;;;;14.10;9.87;;;8.20;99.90;;;;;;5044183;28;20425;-92
2022/04/05 04:54:52;;;;;;;11.75;9.18;;;8.90;99.90;;;;;;5048432;28;20416;-95
2022/04/05 04:57:18;;;;;;;12.90;9.60;;;9.00;99.90;;;;;;5068572;28;20218;-96
2022/04/05 04:59:44;;;;;;;16.47;11.30;;;8.90;99.90;;;;;;5045943;28;20410;-94
2022/04/05 05:02:11;;;;;;;13.32;9.45;;;;;;;;;;5045093;28;20436;-90
2022/04/05 05:04:37;;;;;;;12.27;8.83;;;8.90;99.90;;;;;;5071016;28;20163;-91
2022/04/05 05:07:17;;;;;;;17.43;10.90;;;8.90;99.90;;;;;;5032923;28;20426;-89
2022/04/05 05:09:44;;;;;;;19.50;10.60;;;8.80;99.90;;;;;;4681083;28;10000688;-88
2022/04/05 05:12:11;;;;;;;16.83;11.52;;;8.70;99.90;;;;;;5046096;28;20186;-90
2022/04/05 05:14:38;;;;;;;20.57;12.47;;;8.80;99.90;;;;;;5032547;28;20195;-89
2022/04/05 05:17:04;;;;;;;19.13;10.80;;;8.80;99.90;;;;;;5045535;28;20500;-89
2022/04/05 05:19:30;;;;;;;18.38;10.73;;;;;;;;;;5035327;28;20460;-90
2022/04/05 05:21:56;;;;;;;23.40;11.50;;;;;;;;;;5045060;28;20383;-90
2022/04/05 05:24:22;;;;;;;23.40;12.60;;;;;;;;;;5063547;28;20425;-91
2022/04/05 05:26:48;;;;;;;22.83;12.00;;;;;;;;;;5064275;28;20418;-90
2022/04/05 05:29:15;;;;;;;16.23;11.63;;;;;;;;;;5058695;28;20448;-90
2022/04/05 05:31:41;;;;;;;23.23;13.03;;;;;;;;;;5066718;28;20436;-90
2022/04/05 05:34:08;;;;;;;26.63;14.77;;;;;;;;;;5060431;28;20457;-89
2022/04/05 05:36:34;;;;;;;28.13;15.60;;;;;;;;;;5078338;28;20494;-88
2022/04/05 05:39:00;;;;;;;28.57;15.30;;;;;;;;;;5049621;28;20469;-91
2022/04/05 05:41:26;;;;;;;37.33;15.90;;;;;;;;;;5052635;28;20784;-89
2022/04/05 05:43:52;;;;;;;25.77;14.37;;;;;;;;;;5076529;28;21038;-91
2022/04/05 05:46:20;;;;;;;31.67;14.60;;;;;;;;;;5056985;28;20450;-90
2022/04/05 05:48:49;;;;;;;33.83;15.10;;;;;;;;;;5058997;28;20456;-91
2022/04/05 05:51:20;;;;;;;27.00;16.20;;;;;;;;;;5046666;28;20613;-93
2022/04/05 05:53:46;;;;;;;25.90;14.55;;;;;;;;;;5060455;28;20430;-92
2022/04/05 05:56:19;;;;;;;34.17;16.33;;;8.90;99.90;;;;;;5079525;28;20672;-92
2022/04/05 05:58:50;;;;;;;35.65;18.92;;;9.00;99.90;;;;;;5080519;28;20468;-87
2022/04/05 06:01:17;;;;;;;38.10;21.58;;;8.80;99.90;;;;;;5067741;28;20186;-89
2022/04/05 06:03:43;;;;;;;45.73;22.77;;;8.90;99.90;;;;;;5065648;28;20186;-89
2022/04/05 06:06:09;;;;;;;48.03;22.67;;;;;;;;;;5063621;28;20424;-93
2022/04/05 06:08:35;;;;;;;40.13;24.70;;;9.10;99.90;;;;;;5069504;28;20641;-92
2022/04/05 06:11:01;;;;;;;41.33;25.10;;;;;;;;;;5053213;28;20458;-92
2022/04/05 06:13:29;;;;;;;42.03;25.17;;;;;;;;;;5084116;28;20240;-90
2022/04/05 06:15:55;;;;;;;38.45;24.25;;;;;;;;;;5068023;28;20441;-89
2022/04/05 06:18:21;;;;;;;34.75;22.33;;;;;;;;;;5053960;28;20380;-90
2022/04/05 06:20:47;;;;;;;33.57;22.03;;;;;;;;;;5057664;28;20276;-90
2022/04/05 06:23:13;;;;;;;34.38;23.50;;;;;;;;;;5084709;28;20433;-90
2022/04/05 06:25:46;;;;;;;27.60;18.15;;;;;;;;;;5088220;28;20201;-92
2022/04/05 06:28:16;;;;;;;34.33;24.40;;;;;;;;;;5059748;28;20190;-92
2022/04/05 06:30:46;;;;;;;29.10;20.73;;;;;;;;;;5080144;28;20561;-89
2022/04/05 06:33:22;;;;;;;25.50;18.03;;;;;;;;;;5059335;28;20198;-92
2022/04/05 06:35:51;;;;;;;27.75;20.58;;;;;;;;;;5059692;28;20437;-93
2022/04/05 06:38:40;;;;;;;30.90;21.60;;;;;;;;;;5072788;28;20222;-90
2022/04/05 06:41:48;;;;;;;28.97;19.93;;;;;;;;;;5079651;28;20436;-91
2022/04/05 06:44:53;;;;;;;28.15;19.60;;;;;;;;;;5084833;28;20459;-90
2022/04/05 06:47:58;;;;;;;26.17;19.23;;;;;;;;;;5070908;28;20202;-91
2022/04/05 06:51:04;;;;;;;23.27;15.93;;;;;;;;;;5077062;28;20498;-91
2022/04/05 06:54:09;;;;;;;24.20;19.50;;;;;;;;;;5066380;28;20500;-91
2022/04/05 06:57:16;;;;;;;33.42;19.75;;;;;;;;;;5074630;28;20248;-89
2022/04/05 07:00:23;;;;;;;24.27;21.57;;;;;;;;;;5073395;28;20565;-88
2022/04/05 07:03:27;;;;;;;23.13;19.60;;;;;;;;;;5072145;28;20428;-91
2022/04/05 07:06:35;;;;;;;27.05;20.48;;;;;;;;;;5071801;28;20435;-92
2022/04/05 07:09:39;;;;;;;22.90;19.08;;;;;;;;;;5083653;28;20195;-92
2022/04/05 07:12:45;;;;;;;18.47;16.07;;;;;;;;;;5077626;28;20198;-88
2022/04/05 07:15:51;;;;;;;23.77;18.27;;;;;;;;;;5072711;28;20566;-91
2022/04/05 07:18:57;;;;;;;23.58;17.42;;;;;;;;;;5052562;28;20233;-89
2022/04/05 07:22:03;;;;;;;23.63;16.70;;;;;;;;;;5070529;28;20194;-90
2022/04/05 07:25:08;;;;;;;15.67;14.00;;;;;;;;;;5071358;28;20193;-92
2022/04/05 07:28:14;;;;;;;22.60;16.80;;;;;;;;;;4715201;28;10000379;-88
2022/04/05 07:31:20;;;;;;;17.43;14.13;;;;;;;;;;5075393;28;20674;-90
2022/04/05 07:34:26;;;;;;;15.93;13.87;;;;;;;;;;5079465;28;20990;-89
2022/04/05 07:37:32;;;;;;;15.87;13.97;;;;;;;;;;5077362;28;20578;-90
2022/04/05 07:40:56;;;;;;;18.90;15.87;;;;;;;;;;5074114;28;20451;-88
2022/04/05 07:43:46;;;;;;;19.13;16.40;;;;;;;;;;5076333;28;20474;-90
2022/04/05 07:46:52;;;;;;;17.53;15.63;;;;;;;;;;5069862;28;20451;-91
2022/04/05 07:49:58;;;;;;;17.47;15.67;;;;;;;;;;5078338;28;20460;-90
2022/04/05 07:53:04;;;;;;;16.93;14.50;;;;;;;;;;5075119;28;20518;-89
2022/04/05 07:56:12;;;;;;;16.30;14.70;;;;;;;;;;5062951;28;20822;-91
2022/04/05 07:59:16;;;;;;;15.60;13.93;;;;;;;;;;5069515;28;21319;-91
2022/04/05 08:02:21;;;;;;;15.30;13.87;;;;;;;;;;5066857;28;20201;-91
2022/04/05 08:05:27;;;;;;;18.00;15.93;;;;;;;;;;5065375;28;20490;-90
2022/04/05 08:08:33;;;;;;;19.83;17.33;;;;;;;;;;5063569;28;20914;-90
2022/04/05 08:11:39;;;;;;;14.70;13.20;;;;;;;;;;5076255;28;20437;-89
2022/04/05 08:14:45;;;;;;;17.87;15.97;;;;;;;;;;5065483;28;20494;-90
2022/04/05 08:17:51;;;;;;;16.60;14.07;;;;;;;;;;5069603;28;20482;-90
2022/04/05 08:20:57;;;;;;;16.20;14.47;;;;;;;;;;5053373;28;20428;-90
2022/04/05 08:24:04;;;;;;;15.52;13.70;;;;;;;;;;5071266;28;20463;-89
2022/04/05 08:26:48;;;;;;;15.50;13.93;;;;;;;;;;5072568;28;20202;-90
2022/04/05 08:29:14;;;;;;;17.10;15.30;;;;;;;;;;5071991;28;20857;-90
2022/04/05 08:31:41;;;;;;;18.20;15.63;;;;;;;;;;5052791;28;20448;-89
2022/04/05 08:34:07;;;;;;;16.50;14.73;;;;;;;;;;5051994;28;20498;-89
2022/04/05 08:36:53;;;;;;;17.73;15.90;;;;;;;;;;4715005;28;9999758;-90
2022/04/05 08:40:00;;;;;;;16.95;14.43;;;;;;;;;;5067512;28;20805;-90
2022/04/05 08:43:11;;;;;;;16.30;14.57;;;;;;;;;;5076502;28;20229;-91
2022/04/05 08:46:20;;;;;;;17.10;15.40;;;;;;;;;;5084182;28;20486;-92
2022/04/05 08:49:06;;;;;;;16.73;15.13;;;;;;;;;;5060483;28;20588;-92
2022/04/05 08:51:32;;;;;;;16.57;15.00;;;;;;;;;;5079391;28;20444;-91
2022/04/05 08:54:02;;;;;;;17.23;15.23;;;;;;;;;;5093005;28;20432;-93
2022/04/05 08:56:30;;;;;;;16.77;12.20;;;;;;;;;;5067186;28;20429;-91
2022/04/05 08:58:57;;;;;;;15.73;14.33;;;;;;;;;;5088090;28;20491;-91
2022/04/05 09:01:23;;;;;;;14.33;13.13;;;;;;;;;;5058828;28;20425;-91
2022/04/05 09:03:50;;;;;;;12.73;11.63;;;;;;;;;;5070424;28;20830;-92
2022/04/05 09:06:32;;;;;;;13.50;12.20;;;;;;;;;;5074988;28;20429;-93
2022/04/05 09:09:06;;;;;;;13.80;12.60;;;;;;;;;;5085753;28;20407;-91
2022/04/05 09:11:32;;;;;;;12.07;10.87;;;;;;;;;;5107079;28;20423;-88
2022/04/05 09:13:59;;;;;;;12.43;11.33;;;;;;;;;;5052492;28;20421;-91
2022/04/05 09:16:48;;;;;;;12.67;11.57;;;;;;;;;;5078238;28;20471;-92
2022/04/05 09:19:58;;;;;;;12.33;11.23;;;;;;;;;;5084679;28;20449;-91
2022/04/05 09:23:04;;;;;;;14.13;12.80;;;;;;;;;;5074731;28;20445;-93
2022/04/05 09:26:14;;;;;;;14.17;12.73;;;;;;;;;;5084794;28;20425;-94
2022/04/05 09:29:20;;;;;;;13.80;12.47;;;;;;;;;;5078205;28;20432;-94
2022/04/05 09:32:26;;;;;;;15.90;11.00;;;;;;;;;;5090765;28;20420;-94
2022/04/05 09:35:32;;;;;;;13.33;12.13;;;;;;;;;;5075143;28;20448;-90
2022/04/05 09:38:39;;;;;;;12.80;11.60;;;;;;;;;;5073633;28;20484;-93
2022/04/05 09:41:45;;;;;;;12.50;11.30;;;;;;;;;;5069179;28;20976;-94
2022/04/05 09:44:51;;;;;;;13.27;12.07;;;;;;;;;;5062757;28;20435;-95
2022/04/05 09:47:57;;;;;;;14.90;13.40;;;;;;;;;;5074408;28;20463;-89
2022/04/05 09:51:21;;;;;;;13.07;11.77;;;;;;;;;;5079322;28;20443;-94
2022/04/05 09:54:30;;;;;;;18.83;15.87;;;;;;;;;;5073180;28;20447;-96
2022/04/05 09:57:37;;;;;;;14.37;12.97;;;;;;;;;;5076998;28;20499;-94
2022/04/05 10:00:42;;;;;;;16.63;15.23;;;;;;;;;;5076506;28;21148;-90
2022/04/05 10:03:48;;;;;;;16.27;14.60;;;;;;;;;;5080955;28;20448;-95
2022/04/05 10:06:55;;;;;;;15.93;14.43;;;;;;;;;;4727745;28;10000027;-92
2022/04/05 10:10:01;;;;;;;15.03;13.23;;;;;;;;;;5077661;28;20220;-92
2022/04/05 10:13:07;;;;;;;17.33;14.23;;;;;;;;;;5079497;28;20448;-93
2022/04/05 10:16:13;;;;;;;13.93;12.70;;;;;;;;;;5079816;28;20436;-91
2022/04/05 10:19:19;;;;;;;15.83;14.33;;;;;;;;;;5060757;28;20527;-91
2022/04/05 10:22:24;;;;;;;16.20;14.60;;;;;;;;;;5074688;28;20467;-92
2022/04/05 10:25:30;;;;;;;14.30;13.03;;;;;;;;;;5073923;28;20460;-94
2022/04/05 10:28:37;;;;;;;14.93;13.53;;;;;;;;;;5079307;28;20407;-93
2022/04/05 10:31:25;;;;;;;16.50;15.00;;;;;;;;;;5075117;28;20854;-92
2022/04/05 10:34:14;;;;;;;13.20;12.00;;;;;;;;;;5077961;28;20812;-90
2022/04/05 10:37:23;;;;;;;11.60;10.60;;;;;;;;;;5067515;28;20919;-93
2022/04/05 10:40:10;;;;;;;12.43;11.33;;;;;;;;;;5055864;28;20512;-91
2022/04/05 10:43:15;;;;;;;9.50;8.77;;;;;;;;;;5069602;28;20806;-94
2022/04/05 10:46:21;;;;;;;13.90;12.70;;;;;;;;;;5069777;28;20488;-89
2022/04/05 10:49:26;;;;;;;11.17;10.37;;;;;;;;;;5073266;28;20461;-93
2022/04/05 10:52:34;;;;;;;9.43;8.60;;;;;;;;;;5057519;28;20436;-93
2022/04/05 10:55:38;;;;;;;11.83;10.90;;;;;;;;;;5078843;28;20432;-94
2022/04/05 10:58:44;;;;;;;12.17;11.10;;;;;;;;;;5084325;28;20528;-92
2022/04/05 11:02:16;;;;;;;;;;;;;;;;;;;;;
2022/04/05 11:05:24;;;;;;;9.97;9.07;;;;;;;;;;4958658;29;20418;-91
2022/04/05 11:07:53;;;;;;;11.70;10.60;;;;;;;;;;5006662;28;20432;-90
2022/04/05 11:10:26;;;;;;;11.60;10.77;;;;;;;;;;5060975;28;20438;-90
2022/04/05 11:13:06;;;;;;;10.63;9.82;;;;;;;;;;4755076;22;10001979;-84
2022/04/05 11:15:40;;;;;;;14.23;13.03;;;;;;;;;;5064954;28;20257;-83
2022/04/05 11:18:06;;;;;;;13.23;11.93;;;;;;;;;;5070852;28;20543;-83
2022/04/05 11:20:34;;;;;;;14.87;13.37;;;;;;;;;;5087755;28;20411;-83
2022/04/05 11:23:02;;;;;;;13.47;12.37;;;;;;;;;;5062560;28;20437;-85
2022/04/05 11:25:31;;;;;;;14.03;12.73;;;;;;;;;;5032016;28;20508;-83
2022/04/05 11:28:17;;;;;;;14.27;12.87;;;;;;;;;;5069176;28;20432;-87
2022/04/05 11:31:04;;;;;;;6.80;6.40;;;;;;;;;;5086807;28;20411;-83
2022/04/05 11:33:52;;;;;;;9.83;9.13;;;;;;;;;;5059532;28;20428;-81
2022/04/05 11:36:25;;;;;;;9.17;8.60;;;;;;;;;;5067249;28;20424;-81
2022/04/05 11:38:58;;;;;;;8.20;7.40;;;;;;;;;;5069509;28;20472;-83
2022/04/05 11:41:31;;;;;;;9.97;9.13;;;;;;;;;;5050661;28;20424;-84
2022/04/05 11:44:06;;;;;;;11.13;10.33;;;;;;;;;;5061187;28;20460;-84
2022/04/05 11:46:35;;;;;;;10.20;9.40;;;;;;;;;;5089520;28;20400;-83
2022/04/05 11:49:03;;;;;;;11.90;10.43;;;;;;;;;;5044414;28;20442;-84
2022/04/05 11:51:37;;;;;;;12.03;11.00;;;;;;;;;;5050716;28;20416;-81
2022/04/05 11:54:09;;;;;;;12.17;11.00;;;;;;;;;;5040935;28;20429;-84
2022/04/05 11:56:36;;;;;;;11.67;10.57;;;;;;;;;;5049492;28;20429;-83
2022/04/05 11:59:03;;;;;;;9.70;8.90;;;;;;;;;;5029266;28;20481;-83
2022/04/05 12:01:34;;;;;;;8.87;8.17;;;;;;;;;;5030938;28;20434;-85
2022/04/05 12:04:22;;;;;;;9.10;8.00;;;;;;;;;;5028596;28;20845;-82
2022/04/05 12:06:58;;;;;;;7.67;6.97;;;;;;;;;;5019480;28;20438;-83
2022/04/05 12:09:36;;;;;;;7.60;7.20;;;;;;;;;;5032976;28;20529;-84
2022/04/05 12:12:08;;;;;;;7.47;6.97;;;;;;;;;;5028318;28;20422;-83
2022/04/05 12:14:35;;;;;;;7.67;7.17;;;;;;;;;;5070957;28;20444;-84
2022/04/05 12:17:02;;;;;;;7.07;6.77;;;;;;;;;;5050365;28;20417;-82
2022/04/05 12:19:29;;;;;;;6.73;6.43;;;;;;;;;;5066269;28;20428;-82
2022/04/05 12:22:02;;;;;;;6.50;6.20;;;;;;;;;;5067992;28;20436;-83
2022/04/05 12:24:29;;;;;;;6.80;6.47;;;;;;;;;;5067915;28;20877;-82
2022/04/05 12:26:56;;;;;;;6.80;6.40;;;;;;;;;;5069501;28;20497;-83
2022/04/05 12:29:23;;;;;;;5.70;5.40;;;;;;;;;;5072973;28;20952;-82
2022/04/05 12:31:49;;;;;;;7.50;7.10;;;;;;;;;;5062215;28;20441;-84
2022/04/05 12:34:16;;;;;;;6.43;6.03;;;;;;;;;;5067318;28;20452;-82
2022/04/05 12:37:12;;;;;;;7.20;6.63;;;;;;;;;;5071435;28;20772;-81
2022/04/05 12:39:43;;;;;;;7.57;6.73;;;;;;;;;;5055794;28;20445;-82
2022/04/05 12:42:09;;;;;;;7.27;6.97;;;;;;;;;;5066700;28;20863;-82
2022/04/05 12:44:36;;;;;;;7.00;6.40;;;;;;;;;;5069562;28;20431;-82
2022/04/05 12:47:07;;;;;;;8.00;7.47;;;;;;;;;;5048333;28;20428;-83
2022/04/05 12:49:35;;;;;;;7.37;6.97;;;;;;;;;;5049696;28;20538;-82
2022/04/05 12:52:21;;;;;;;5.33;5.03;;;;;;;;;;5047336;28;20430;-84
2022/04/05 12:54:48;;;;;;;6.80;6.30;;;;;;;;;;5050356;28;20421;-82
2022/04/05 12:57:18;;;;;;;6.40;6.20;;;;;;;;;;5064949;28;20420;-84
2022/04/05 12:59:46;;;;;;;7.53;7.03;;;;;;;;;;5049301;28;20440;-82
2022/04/05 13:02:18;;;;;;;7.90;7.47;;;;;;;;;;5047468;28;20437;-83
2022/04/05 13:04:44;;;;;;;7.13;6.73;;;;;;;;;;5049095;28;20449;-83
2022/04/05 13:07:10;;;;;;;7.80;7.20;;;;;;;;;;5065512;28;20531;-82
2022/04/05 13:09:37;;;;;;;7.90;7.50;;;;;;;;;;5049054;28;20961;-82
2022/04/05 13:12:11;;;;;;;9.40;8.60;;;;;;;;;;5065465;28;20511;-84
2022/04/05 13:14:41;;;;;;;8.53;7.93;;;;;;;;;;5057684;28;20829;-83
2022/04/05 13:17:08;;;;;;;8.23;7.17;;;;;;;;;;4367491;28;10000722;-84
2022/04/05 13:19:37;;;;;;;8.07;7.47;;;;;;;;;;5064440;28;20183;-82
2022/04/05 13:22:13;;;;;;;7.00;6.57;;;;;;;;;;5054484;28;20441;-84
2022/04/05 13:24:40;;;;;;;6.23;5.93;;;;;;;;;;5055432;28;20432;-84
2022/04/05 13:27:06;;;;;;;7.00;6.60;;;;;;;;;;5075781;28;21208;-81
2022/04/05 13:29:34;;;;;;;7.67;7.03;;;;;;;;;;5046132;28;20425;-84
2022/04/05 13:32:04;;;;;;;8.53;8.00;;;;;;;;;;5070339;28;20471;-83
2022/04/05 13:34:31;;;;;;;10.20;9.50;;;;;;;;;;5052407;28;20477;-84
2022/04/05 13:37:05;;;;;;;9.47;8.77;;;;;;;;;;5058294;28;20973;-81
2022/04/05 13:39:36;;;;;;;8.70;8.10;;;;;;;;;;5070787;28;20766;-84
2022/04/05 13:42:08;;;;;;;8.23;7.63;;;;;;;;;;5050913;28;20502;-88
2022/04/05 13:44:35;;;;;;;9.00;8.30;;;;;;;;;;5053675;28;20460;-86
2022/04/05 13:47:03;;;;;;;7.20;6.70;;;;;;;;;;5070760;28;20429;-84
2022/04/05 13:49:29;;;;;;;8.40;8.00;;;;;;;;;;5078517;28;20807;-82
2022/04/05 13:51:57;;;;;;;7.43;7.03;;;;;;;;;;5056483;28;20496;-82
2022/04/05 13:54:23;;;;;;;8.07;7.43;;;;;;;;;;5052794;28;20958;-85
2022/04/05 13:56:49;;;;;;;8.17;7.43;;;;;;;;;;5069529;28;20431;-83
2022/04/05 13:59:32;;;;;;;6.83;6.20;;;;;;;;;;5070413;28;20440;-84
2022/04/05 14:01:58;;;;;;;12.10;7.40;;;;;;;;;;5061294;28;20429;-84
2022/04/05 14:04:24;;;;;;;7.53;7.00;;;;;;;;;;5068575;28;20436;-82
2022/04/05 14:06:50;;;;;;;7.13;6.63;;;;;;;;;;5060465;28;20959;-83
2022/04/05 14:09:16;;;;;;;6.93;6.53;;;;;;;;;;5067310;28;20428;-86
2022/04/05 14:11:43;;;;;;;6.23;5.93;;;;;;;;;;5037596;28;20943;-85
2022/04/05 14:14:09;;;;;;;6.13;5.83;;;;;;;;;;5047495;28;20452;-84
2022/04/05 14:16:35;;;;;;;7.50;7.10;;;;;;;;;;5042548;28;20444;-86
2022/04/05 14:19:02;;;;;;;7.07;6.77;;;;;;;;;;5066870;28;20655;-84
2022/04/05 14:21:28;;;;;;;8.23;7.80;;;;;;;;;;5071680;28;20429;-87
2022/04/05 14:23:55;;;;;;;7.93;7.53;;;;;;;;;;5069943;28;20420;-87
2022/04/05 14:26:21;;;;;;;8.03;7.53;;;;;;;;;;5068215;28;20929;-90
2022/04/05 14:28:47;;;;;;;7.27;6.77;;;;;;;;;;5069026;28;20503;-87
2022/04/05 14:31:13;;;;;;;6.67;6.37;;;;;;;;;;5061231;28;20476;-84
2022/04/05 14:33:39;;;;;;;7.50;7.00;;;;;;;;;;5062853;28;20923;-85
2022/04/05 14:36:06;;;;;;;8.27;7.67;;;;;;;;;;5050600;28;20463;-88
2022/04/05 14:38:31;;;;;;;7.10;6.70;;;;;;;;;;5051919;28;20571;-85
2022/04/05 14:40:58;;;;;;;8.57;7.70;;;;;;;;;;5050605;28;20441;-87
2022/04/05 14:43:24;;;;;;;7.10;6.60;;;;;;;;;;5054377;28;20513;-87
2022/04/05 14:45:50;;;;;;;6.90;6.40;;;;;;;;;;5078752;28;20789;-86
2022/04/05 14:48:16;;;;;;;7.07;6.67;;;;;;;;;;5072936;28;20796;-90
2022/04/05 14:50:42;;;;;;;7.20;6.80;;;;;;;;;;5083895;28;20518;-86
2022/04/05 14:53:08;;;;;;;6.70;6.40;;;;;;;;;;5065067;28;20428;-84
2022/04/05 14:55:35;;;;;;;7.30;6.70;;;;;;;;;;5074625;28;20665;-86
2022/04/05 14:58:01;;;;;;;7.10;6.63;;;;;;;;;;5059729;28;20509;-88
2022/04/05 15:00:27;;;;;;;7.83;7.30;;;;;;;;;;5068798;28;20472;-85
2022/04/05 15:02:53;;;;;;;7.00;6.60;;;;;;;;;;5088882;28;20971;-87
2022/04/05 15:05:20;;;;;;;10.07;9.30;;;;;;;;;;5069734;28;20959;-85
2022/04/05 15:07:46;;;;;;;8.60;8.10;;;;;;;;;;5072660;28;20500;-87
2022/04/05 15:10:18;;;;;;;8.53;7.90;;;;;;;;;;5074106;28;20424;-87